Time;durP1;ratioP1;P1;durP2;ratioP2;P2;SDS_P1;SDS_P2;PMS_P1;PMS_P2;Temp;Humidity;BMP_temperature;BMP_pressure;BME280_temperature;BME280_humidity;BME280_pressure;Samples;Min_cycle;Max_cycle;Signal;HPM_P1;HPM_P2
2023/07/27 00:07:18;;;;;;;19.90;5.28;;;;;;;29.57;26.10;100017.84;20894264;28;20049;-75
2023/07/27 00:17:42;;;;;;;19.30;5.18;;;;;;;29.44;26.00;100004.28;20947771;28;20056;-74
2023/07/27 00:28:05;;;;;;;12.45;4.05;;;;;;;29.29;25.84;99991.78;20913022;28;20045;-75
2023/07/27 00:38:09;;;;;;;12.05;4.30;;;;;;;29.19;26.17;99996.19;20918202;28;20339;-74
2023/07/27 00:48:32;;;;;;;17.98;4.88;;;;;;;29.13;26.49;99993.91;20899991;28;20053;-75
2023/07/27 00:58:59;;;;;;;20.88;4.53;;;;;;;28.99;26.35;99988.63;20902357;28;20490;-75
2023/07/27 01:09:21;;;;;;;19.70;4.40;;;;;;;28.89;26.10;99993.84;20880469;28;20056;-74
2023/07/27 01:20:05;;;;;;;13.48;4.32;;;;;;;28.90;25.94;99998.28;20846917;28;20053;-75
2023/07/27 01:31:07;;;;;;;15.40;4.97;;;;;;;28.89;26.39;99999.28;20947015;28;20556;-74
2023/07/27 01:41:31;;;;;;;14.00;4.90;;;;;;;28.83;26.34;100002.44;20802947;28;20055;-74
2023/07/27 01:51:57;;;;;;;18.15;4.72;;;;;;;28.63;27.04;99994.81;20921082;28;20139;-75
2023/07/27 02:02:20;;;;;;;18.90;4.63;;;;;;;28.41;27.85;100012.66;20878751;28;20114;-74
2023/07/27 02:12:48;;;;;;;16.75;4.40;;;;;;;28.07;28.71;100043.06;20903854;28;20053;-74
2023/07/27 02:22:51;;;;;;;;;;;;;;;27.74;29.54;100076.94;20917124;28;20390;-75
2023/07/27 02:33:16;;;;;;;17.23;4.47;;;;;;;27.76;30.07;100064.09;20926897;28;19956;-74
2023/07/27 02:43:39;;;;;;;18.33;5.25;;;;;;;27.52;32.06;100057.59;20887297;28;20673;-74
2023/07/27 02:54:05;;;;;;;17.58;5.57;;;;;;;27.46;33.02;100060.69;20892520;28;20040;-75
2023/07/27 03:04:28;;;;;;;21.20;5.95;;;;;;;27.25;36.57;100079.22;20881750;28;20580;-75
2023/07/27 03:14:53;;;;;;;19.00;5.13;;;;;;;27.17;36.23;100069.84;20883417;28;20064;-74
2023/07/27 03:25:16;;;;;;;17.60;5.40;;;;;;;27.11;35.50;100048.56;20913393;28;20095;-75
2023/07/27 03:35:41;;;;;;;21.77;5.28;;;;;;;27.53;35.80;100040.38;20882388;28;20110;-74
2023/07/27 03:46:04;;;;;;;18.77;5.32;;;;;;;27.64;36.36;100036.94;20910628;28;20492;-74
2023/07/27 03:56:29;;;;;;;16.20;4.80;;;;;;;27.77;36.21;100044.16;20939693;28;20063;-75
2023/07/27 04:06:51;;;;;;;19.10;4.45;;;;;;;27.92;37.22;100038.66;20911670;28;20148;-75
2023/07/27 04:17:15;;;;;;;15.63;4.80;;;;;;;28.15;37.60;100040.75;20914913;28;20099;-74
2023/07/27 04:27:18;;;;;;;16.67;5.40;;;;;;;28.42;38.38;100048.81;20904824;28;20041;-74
2023/07/27 04:37:22;;;;;;;18.27;4.40;;;;;;;28.97;38.19;100048.53;20903515;28;20432;-74
2023/07/27 04:47:45;;;;;;;21.88;4.78;;;;;;;29.37;38.49;100049.25;20882600;28;20048;-74
2023/07/27 04:58:10;;;;;;;15.43;4.70;;;;;;;29.91;38.90;100067.88;20899625;28;20048;-76
2023/07/27 05:08:32;;;;;;;22.27;4.88;;;;;;;30.56;39.27;100081.06;20908217;28;20060;-76
2023/07/27 05:18:57;;;;;;;19.35;4.63;;;;;;;31.21;38.78;100087.63;20912027;28;20056;-76
2023/07/27 05:29:20;;;;;;;17.65;4.70;;;;;;;31.81;39.77;100093.66;20866884;28;20044;-73
2023/07/27 05:39:44;;;;;;;19.02;4.60;;;;;;;32.53;38.05;100107.59;20893386;28;20070;-74
2023/07/27 05:50:08;;;;;;;17.88;4.20;;;;;;;33.60;36.35;100127.28;20897429;28;20061;-74
2023/07/27 06:00:28;;;;;;;18.50;4.65;;;;;;;34.73;34.19;100134.97;20932342;28;20047;-74
2023/07/27 06:11:01;;;;;;;18.33;5.50;;;;;;;35.88;31.45;100142.03;20895421;28;20139;-73
2023/07/27 06:21:27;;;;;;;19.08;5.22;;;;;;;36.46;30.85;100166.41;20900437;28;20771;-74
2023/07/27 06:31:49;;;;;;;20.92;5.07;;;;;;;37.03;30.05;100176.03;20902117;28;20073;-74
2023/07/27 06:42:15;;;;;;;18.35;5.47;;;;;;;37.56;29.66;100182.44;20930670;28;20053;-74
2023/07/27 06:52:39;;;;;;;16.58;5.47;;;;;;;38.24;28.79;100183.31;20904299;28;20140;-75
2023/07/27 07:03:03;;;;;;;13.90;5.03;;;;;;;38.68;29.24;100197.75;20909706;28;20489;-74
2023/07/27 07:13:25;;;;;;;15.38;5.00;;;;;;;38.81;29.52;100194.47;20894224;28;20061;-75
2023/07/27 07:23:50;;;;;;;12.50;5.10;;;;;;;38.78;30.92;100209.50;20884806;28;20061;-75
2023/07/27 07:34:12;;;;;;;16.10;5.00;;;;;;;39.19;30.55;100231.63;20888705;28;20598;-75
2023/07/27 07:44:40;;;;;;;17.25;4.63;;;;;;;39.21;31.41;100255.28;20914110;28;20545;-75
2023/07/27 07:55:03;;;;;;;13.95;4.80;;;;;;;39.48;32.65;100272.56;20910455;28;20191;-75
2023/07/27 08:05:26;;;;;;;13.48;4.95;;;;;;;39.44;33.86;100289.50;20931563;28;20114;-75
2023/07/27 08:15:53;;;;;;;18.55;5.22;;;;;;;39.77;33.74;100272.88;20903734;28;20045;-76
2023/07/27 08:26:18;;;;;;;14.57;4.50;;;;;;;39.87;32.86;100267.16;20917956;28;20041;-75
2023/07/27 08:36:50;;;;;;;12.57;4.88;;;;;;;39.77;32.68;100272.88;20936948;28;20044;-75
2023/07/27 08:47:18;;;;;;;17.50;4.90;;;;;;;40.04;33.11;100285.44;20924571;28;20055;-76
2023/07/27 08:57:42;;;;;;;14.73;4.60;;;;;;;40.33;33.26;100285.69;20855401;28;20059;-76
2023/07/27 09:08:09;;;;;;;19.83;4.85;;;;;;;40.91;33.18;100300.97;20935858;28;20112;-75
2023/07/27 09:18:36;;;;;;;13.20;3.95;;;;;;;40.41;34.28;100290.34;20896859;28;20109;-74
2023/07/27 09:29:04;;;;;;;13.15;4.80;;;;;;;40.30;36.15;100305.44;20904174;28;20378;-76
2023/07/27 09:39:28;;;;;;;11.57;4.00;;;;;;;40.53;35.68;100298.06;20899539;28;20421;-74
2023/07/27 09:49:53;;;;;;;13.70;4.65;;;;;;;40.97;35.00;100311.31;20909142;28;20248;-75
2023/07/27 10:00:17;;;;;;;15.65;4.65;;;;;;;40.99;36.08;100325.84;20864893;28;20060;-75
2023/07/27 10:10:43;;;;;;;16.25;4.15;;;;;;;40.85;38.08;100334.94;20861163;28;20045;-75
2023/07/27 10:21:25;;;;;;;17.85;5.15;;;;;;;39.92;41.06;100356.00;20892356;28;20052;-76
2023/07/27 10:32:02;;;;;;;12.80;4.05;;;;;;;39.87;41.68;100348.22;20855180;28;20131;-77
2023/07/27 10:42:08;;;;;;;12.30;4.35;;;;;;;39.94;41.33;100356.69;20917679;28;20058;-76
2023/07/27 10:52:34;;;;;;;23.05;5.18;;;;;;;40.18;41.57;100349.19;20893393;28;20139;-75
2023/07/27 11:02:58;;;;;;;17.40;5.53;;;;;;;40.03;41.54;100366.72;20900394;28;20044;-75
2023/07/27 11:13:25;;;;;;;18.75;5.75;;;;;;;40.04;42.14;100338.84;20911491;28;20056;-77
2023/07/27 11:23:49;;;;;;;20.05;5.88;;;;;;;39.94;42.16;100335.41;20918642;28;20041;-76
2023/07/27 11:34:15;;;;;;;20.77;6.03;;;;;;;40.17;41.38;100328.09;20916572;28;20494;-75
2023/07/27 11:44:39;;;;;;;17.65;5.47;;;;;;;40.19;40.84;100328.78;20938366;28;20142;-76
2023/07/27 11:55:05;;;;;;;15.93;4.18;;;;;;;40.16;38.59;100312.53;20894369;28;20068;-76
2023/07/27 12:05:28;;;;;;;16.95;4.80;;;;;;;39.74;36.19;100323.84;20905951;28;20045;-74
2023/07/27 12:15:59;;;;;;;13.90;3.70;;;;;;;39.72;34.77;100311.22;20903537;28;20061;-76
2023/07/27 12:26:22;;;;;;;13.73;4.55;;;;;;;39.51;34.05;100317.31;20903625;28;20124;-76
2023/07/27 12:36:46;;;;;;;15.48;4.55;;;;;;;39.44;33.08;100319.03;20919349;28;20064;-75
2023/07/27 12:47:09;;;;;;;11.40;3.65;;;;;;;39.27;30.47;100325.56;20904216;28;20053;-75
2023/07/27 12:57:34;;;;;;;11.75;3.42;;;;;;;39.25;30.59;100339.56;20904439;28;20054;-75
2023/07/27 13:07:57;;;;;;;8.55;3.50;;;;;;;39.16;29.98;100335.06;20877295;28;20061;-75
2023/07/27 13:18:21;;;;;;;12.35;3.30;;;;;;;38.86;29.26;100352.25;20883829;28;20059;-76
2023/07/27 13:28:46;;;;;;;9.25;3.33;;;;;;;38.70;29.51;100361.31;20889076;28;20250;-76
2023/07/27 13:39:10;;;;;;;8.93;3.10;;;;;;;38.41;29.80;100358.03;20880292;28;20797;-76
2023/07/27 13:49:33;;;;;;;10.13;3.50;;;;;;;38.15;30.43;100358.09;20882554;28;20064;-76
2023/07/27 14:00:07;;;;;;;10.57;3.50;;;;;;;37.79;31.23;100362.81;20912214;28;20049;-76
2023/07/27 14:10:30;;;;;;;10.98;3.50;;;;;;;37.64;32.38;100376.31;20914275;28;20095;-76
2023/07/27 14:20:55;;;;;;;13.18;3.45;;;;;;;37.61;33.22;100364.75;20882775;28;20044;-76
2023/07/27 14:31:20;;;;;;;11.07;3.88;;;;;;;37.62;33.69;100388.50;20925552;28;20052;-75
2023/07/27 14:41:47;;;;;;;15.07;3.88;;;;;;;37.35;33.95;100367.44;20844768;28;20081;-78
2023/07/27 14:52:10;;;;;;;;;;;;;;;37.41;33.57;100375.94;20874084;28;20171;-78
2023/07/27 15:02:25;;;;;;;10.27;3.20;;;;;;;37.05;34.19;100371.38;20869490;28;19962;-76
2023/07/27 15:12:48;;;;;;;10.35;3.20;;;;;;;36.06;36.48;100372.09;20869534;28;20056;-80
2023/07/27 15:23:15;;;;;;;13.43;3.83;;;;;;;35.15;37.11;100377.06;20894038;28;20079;-81
2023/07/27 15:33:38;;;;;;;10.70;4.00;;;;;;;34.31;38.45;100380.28;20965368;28;20046;-81
2023/07/27 15:44:03;;;;;;;11.48;4.13;;;;;;;33.65;40.08;100392.50;20940939;28;20056;-81
2023/07/27 15:54:26;;;;;;;11.52;3.83;;;;;;;33.45;41.12;100411.50;20947228;28;20079;-80
2023/07/27 16:04:51;;;;;;;12.30;3.92;;;;;;;33.25;42.67;100422.41;20919574;28;20063;-80
2023/07/27 16:15:13;;;;;;;9.98;3.80;;;;;;;32.94;45.03;100422.22;20909950;28;20566;-79
2023/07/27 16:25:38;;;;;;;11.68;3.92;;;;;;;32.64;47.41;100438.34;20901477;28;20048;-78
2023/07/27 16:36:01;;;;;;;11.25;4.93;;;;;;;32.50;48.67;100444.94;20903162;28;20046;-77
2023/07/27 16:46:27;;;;;;;13.80;3.95;;;;;;;32.24;50.62;100443.44;20880973;28;20072;-77
2023/07/27 16:56:51;;;;;;;16.00;4.78;;;;;;;31.98;52.27;100454.53;20875009;28;20056;-77
2023/07/27 17:07:15;;;;;;;12.57;4.13;;;;;;;31.76;55.25;100486.38;20907285;28;20072;-77
2023/07/27 17:17:37;;;;;;;17.67;4.53;;;;;;;31.48;58.90;100482.13;20888077;28;20057;-76
2023/07/27 17:28:02;;;;;;;14.80;4.78;;;;;;;31.24;61.28;100501.22;20930351;28;20044;-76
2023/07/27 17:38:27;;;;;;;14.02;4.63;;;;;;;31.04;63.78;100524.47;20898409;28;20107;-75
2023/07/27 17:48:51;;;;;;;14.15;4.95;;;;;;;30.78;66.04;100540.00;20890124;28;20049;-74
2023/07/27 17:59:13;;;;;;;16.23;4.95;;;;;;;30.58;68.68;100536.97;20890901;28;20053;-75
2023/07/27 18:09:37;;;;;;;14.55;4.85;;;;;;;30.42;69.58;100548.03;20884442;28;20091;-76
2023/07/27 18:20:00;;;;;;;14.90;4.80;;;;;;;30.22;68.94;100560.31;20893324;28;20107;-75
2023/07/27 18:30:25;;;;;;;10.00;4.50;;;;;;;30.01;70.40;100573.56;20880221;28;20048;-74
2023/07/27 18:40:47;;;;;;;13.93;5.03;;;;;;;29.84;72.16;100587.41;20865986;28;20053;-74
2023/07/27 18:51:11;;;;;;;14.10;4.97;;;;;;;29.68;74.98;100594.84;20893309;28;20049;-75
2023/07/27 19:01:34;;;;;;;14.52;5.45;;;;;;;29.53;74.70;100601.31;20889456;28;20059;-75
2023/07/27 19:11:38;;;;;;;14.43;5.30;;;;;;;29.38;76.87;100610.47;20884042;28;20539;-75
2023/07/27 19:22:01;;;;;;;13.43;4.97;;;;;;;29.19;78.85;100611.63;20922283;28;20048;-75
2023/07/27 19:32:25;;;;;;;18.52;5.57;;;;;;;29.03;81.05;100616.28;20912059;28;20045;-74
2023/07/27 19:42:48;;;;;;;18.88;5.85;;;;;;;28.82;82.95;100623.94;20949412;28;20717;-74
2023/07/27 19:53:12;;;;;;;14.70;5.30;;;;;;;28.63;86.41;100627.84;20917502;28;20456;-75
2023/07/27 20:03:35;;;;;;;15.82;5.32;;;;;;;28.42;90.40;100622.75;20937284;28;20048;-75
2023/07/27 20:13:39;;;;;;;12.25;4.65;;;;;;;28.32;88.62;100618.88;20894857;28;20060;-73
2023/07/27 20:24:02;;;;;;;13.57;5.32;;;;;;;28.20;89.49;100616.00;20891966;28;20132;-74
2023/07/27 20:34:27;;;;;;;13.15;5.05;;;;;;;28.04;89.22;100622.31;20874507;28;20084;-75
2023/07/27 20:44:53;;;;;;;14.50;4.93;;;;;;;27.91;89.27;100629.41;20920107;28;20106;-74
2023/07/27 20:55:17;;;;;;;12.77;4.13;;;;;;;27.78;88.80;100625.66;20912789;28;20643;-74
2023/07/27 21:05:40;;;;;;;10.93;4.80;;;;;;;27.56;88.00;100628.75;20903320;28;20440;-75
2023/07/27 21:16:06;;;;;;;13.27;4.93;;;;;;;27.42;88.17;100623.19;20889063;28;20048;-74
2023/07/27 21:26:29;;;;;;;10.38;4.07;;;;;;;27.19;88.96;100623.59;20886668;28;20045;-75
2023/07/27 21:36:53;;;;;;;11.05;4.97;;;;;;;27.00;86.98;100628.28;20885851;28;20044;-75
2023/07/27 21:47:16;;;;;;;11.05;4.28;;;;;;;26.82;85.51;100632.84;20921003;28;20060;-76
2023/07/27 21:57:39;;;;;;;10.65;4.10;;;;;;;26.85;83.04;100638.94;20886233;28;20057;-75
2023/07/27 22:08:02;;;;;;;9.52;3.72;;;;;;;26.73;80.50;100631.47;20893181;28;20165;-75
2023/07/27 22:18:26;;;;;;;9.27;5.65;;;;;;;26.69;78.14;100627.19;20960454;28;20072;-76
2023/07/27 22:28:49;;;;;;;10.48;3.80;;;;;;;26.57;77.98;100625.13;20913046;28;20048;-75
2023/07/27 22:39:14;;;;;;;9.40;4.07;;;;;;;26.39;82.16;100620.66;20893900;28;20057;-75
2023/07/27 22:49:37;;;;;;;9.85;3.83;;;;;;;26.39;82.80;100628.78;20896456;28;20049;-76
2023/07/27 23:00:03;;;;;;;12.30;4.45;;;;;;;26.36;86.97;100620.84;20902498;28;20564;-75
2023/07/27 23:10:25;;;;;;;11.75;4.35;;;;;;;26.25;91.48;100620.53;20903383;28;20057;-76
2023/07/27 23:20:49;;;;;;;10.82;4.20;;;;;;;26.25;95.88;100612.41;20883325;28;20095;-75
2023/07/27 23:31:12;;;;;;;10.18;4.07;;;;;;;26.05;100.00;100616.97;20890742;28;20142;-75
2023/07/27 23:41:36;;;;;;;10.57;4.32;;;;;;;26.01;100.00;100628.88;20884503;28;20048;-76
2023/07/27 23:51:59;;;;;;;11.35;4.63;;;;;;;26.09;100.00;100621.25;20864920;28;20413;-76
